createdAt,value
2019-01-31T00:00:39.832Z,1.20
2019-01-31T00:03:32.167Z,1.10
2019-01-31T00:06:15.708Z,0.90
2019-01-31T00:08:47.198Z,1.27
2019-01-31T00:11:30.808Z,1.10
2019-01-31T00:14:35.618Z,1.33
2019-01-31T00:17:31.324Z,1.20
2019-01-31T00:20:02.817Z,1.07
2019-01-31T00:22:52.683Z,1.20
2019-01-31T00:25:46.420Z,1.03
2019-01-31T00:28:34.462Z,1.20
2019-01-31T00:31:25.529Z,1.10
2019-01-31T00:34:13.640Z,1.13
2019-01-31T00:36:57.203Z,1.00
2019-01-31T00:39:34.187Z,1.37
2019-01-31T00:42:17.813Z,1.33
2019-01-31T00:45:08.858Z,1.23
2019-01-31T00:48:12.113Z,1.47
2019-01-31T00:50:49.430Z,1.20
2019-01-31T00:53:23.538Z,1.10
2019-01-31T00:55:57.777Z,1.10
2019-01-31T00:58:41.093Z,1.40
2019-01-31T01:01:21.420Z,1.60
2019-01-31T01:03:58.671Z,1.17
2019-01-31T01:06:46.637Z,1.07
2019-01-31T01:09:29.862Z,1.23
2019-01-31T01:12:09.698Z,1.40
2019-01-31T01:14:49.889Z,1.60
2019-01-31T01:17:21.377Z,1.07
2019-01-31T01:19:52.843Z,1.00
2019-01-31T01:22:30.440Z,1.17
2019-01-31T01:25:18.669Z,1.40
2019-01-31T01:28:12.944Z,1.13
2019-01-31T01:31:17.602Z,1.13
2019-01-31T01:34:16.242Z,1.30
2019-01-31T01:36:50.453Z,1.40
2019-01-31T01:39:30.828Z,1.50
2019-01-31T01:42:14.039Z,1.47
2019-01-31T01:45:17.425Z,1.27
2019-01-31T01:47:51.634Z,1.20
2019-01-31T01:50:41.014Z,1.17
2019-01-31T01:53:15.073Z,1.10
2019-01-31T01:55:52.418Z,1.37
2019-01-31T01:58:26.973Z,1.33
2019-01-31T02:01:03.643Z,1.63
2019-01-31T02:03:51.623Z,1.40
2019-01-31T02:06:25.705Z,1.27
2019-01-31T02:09:29.736Z,1.40
2019-01-31T02:11:58.655Z,1.30
2019-01-31T02:14:45.177Z,1.80
2019-01-31T02:17:22.609Z,1.50
2019-01-31T02:20:27.514Z,1.60
2019-01-31T02:23:22.640Z,1.23
2019-01-31T02:26:12.126Z,1.57
2019-01-31T02:28:43.638Z,1.50
2019-01-31T02:31:40.945Z,1.60
2019-01-31T02:34:15.204Z,1.17
2019-01-31T02:36:49.193Z,1.20
2019-01-31T02:39:43.244Z,1.30
2019-01-31T02:42:30.170Z,1.37
2019-01-31T02:45:04.457Z,1.63
2019-01-31T02:47:55.543Z,1.20
2019-01-31T02:50:35.522Z,1.43
2019-01-31T02:53:09.965Z,1.30
2019-01-31T02:56:00.791Z,1.30
2019-01-31T02:58:51.410Z,1.30
2019-01-31T03:01:25.581Z,1.53
2019-01-31T03:03:59.681Z,1.33
2019-01-31T03:06:50.424Z,1.23
2019-01-31T03:09:30.563Z,1.43
2019-01-31T03:12:17.176Z,1.37
2019-01-31T03:14:48.492Z,1.60
2019-01-31T03:17:25.725Z,1.27
2019-01-31T03:19:57.187Z,1.30
2019-01-31T03:22:28.637Z,1.43
2019-01-31T03:25:05.681Z,1.60
2019-01-31T03:27:55.100Z,1.80
2019-01-31T03:30:59.687Z,1.37
2019-01-31T03:33:36.963Z,1.47
2019-01-31T03:36:28.869Z,1.37
2019-01-31T03:39:03.063Z,1.50
2019-01-31T03:41:49.614Z,1.37
2019-01-31T03:44:29.642Z,1.13
2019-01-31T03:47:03.884Z,1.40
2019-01-31T03:49:44.577Z,1.60
2019-01-31T03:52:28.020Z,1.23
2019-01-31T03:55:15.909Z,1.20
2019-01-31T03:57:53.046Z,1.30
2019-01-31T04:00:39.674Z,1.00
2019-01-31T04:03:11.147Z,1.30
2019-01-31T04:05:42.843Z,1.20
2019-01-31T04:08:11.065Z,1.13
2019-01-31T04:10:39.267Z,1.40
2019-01-31T04:13:07.496Z,1.20
2019-01-31T04:15:35.880Z,1.33
2019-01-31T04:18:04.449Z,1.30
2019-01-31T04:20:32.668Z,1.43
2019-01-31T04:23:00.892Z,1.70
2019-01-31T04:25:29.116Z,1.47
2019-01-31T04:27:57.430Z,1.30
2019-01-31T04:30:25.620Z,1.27
2019-01-31T04:32:53.820Z,1.60
2019-01-31T04:35:22.041Z,1.33
2019-01-31T04:37:50.274Z,1.37
2019-01-31T04:40:30.525Z,1.40
2019-01-31T04:42:48.386Z,1.57
2019-01-31T04:45:16.586Z,1.00
2019-01-31T04:47:44.800Z,1.30
2019-01-31T04:50:14.458Z,1.50
2019-01-31T04:52:42.672Z,1.30
2019-01-31T04:55:11.242Z,1.40
2019-01-31T04:57:39.446Z,1.07
2019-01-31T05:00:16.429Z,1.40
2019-01-31T05:02:44.624Z,1.43
2019-01-31T05:05:12.848Z,1.40
2019-01-31T05:07:41.079Z,2.10
2019-01-31T05:10:13.294Z,1.63
2019-01-31T05:12:41.486Z,1.43
2019-01-31T05:15:11.952Z,2.23
2019-01-31T05:17:40.136Z,2.30
2019-01-31T05:20:11.454Z,2.60
2019-01-31T05:22:39.649Z,2.20
2019-01-31T05:25:09.884Z,2.03
2019-01-31T05:27:38.084Z,2.33
2019-01-31T05:30:09.030Z,2.93
2019-01-31T05:32:37.254Z,2.27
2019-01-31T05:35:06.722Z,2.07
2019-01-31T05:37:34.943Z,2.70
2019-01-31T05:40:03.406Z,3.03
2019-01-31T05:42:31.616Z,2.83
2019-01-31T05:44:59.844Z,5.70
2019-01-31T05:47:28.053Z,10.20
2019-01-31T05:49:56.293Z,9.37
2019-01-31T05:52:24.499Z,9.70
2019-01-31T05:54:52.724Z,11.33
2019-01-31T05:57:20.935Z,10.97
2019-01-31T05:59:49.157Z,10.03
2019-01-31T06:02:17.366Z,12.73
2019-01-31T06:04:45.604Z,12.57
2019-01-31T06:07:13.836Z,11.43
2019-01-31T06:09:42.062Z,13.77
2019-01-31T06:12:10.293Z,13.97
2019-01-31T06:14:38.502Z,13.57
2019-01-31T06:17:06.742Z,13.43
2019-01-31T06:19:34.938Z,12.33
2019-01-31T06:22:03.158Z,13.67
2019-01-31T06:24:31.377Z,14.60
2019-01-31T06:26:59.610Z,13.50
2019-01-31T06:29:27.838Z,12.97
2019-01-31T06:31:56.040Z,12.87
2019-01-31T06:34:24.270Z,12.90
2019-01-31T06:36:52.476Z,13.70
2019-01-31T06:39:20.708Z,13.20
2019-01-31T06:41:48.937Z,13.37
2019-01-31T06:44:17.142Z,11.53
2019-01-31T06:46:45.330Z,13.23
2019-01-31T06:49:13.560Z,12.90
2019-01-31T06:51:41.767Z,11.13
2019-01-31T06:54:09.985Z,11.97
2019-01-31T06:56:38.190Z,12.67
2019-01-31T06:59:06.423Z,11.30
2019-01-31T07:01:34.621Z,11.77
2019-01-31T07:04:02.827Z,11.93
2019-01-31T07:06:31.059Z,11.50
2019-01-31T07:08:59.269Z,11.40
2019-01-31T07:11:30.060Z,11.43
2019-01-31T07:13:57.431Z,10.93
2019-01-31T07:16:25.644Z,9.93
2019-01-31T07:18:53.951Z,10.60
2019-01-31T07:21:22.141Z,11.00
2019-01-31T07:23:50.341Z,10.93
2019-01-31T07:26:18.568Z,9.60
2019-01-31T07:28:46.793Z,9.90
2019-01-31T07:31:15.019Z,9.73
2019-01-31T07:33:43.228Z,9.37
2019-01-31T07:36:11.461Z,8.83
2019-01-31T07:38:39.665Z,9.47
2019-01-31T07:41:07.905Z,9.80
2019-01-31T07:43:36.112Z,9.00
2019-01-31T07:46:04.515Z,9.30
2019-01-31T07:48:32.707Z,8.43
2019-01-31T07:51:00.935Z,8.37
2019-01-31T07:53:29.130Z,8.47
2019-01-31T07:55:57.345Z,8.20
2019-01-31T07:58:25.640Z,7.33
2019-01-31T08:00:53.875Z,6.90
2019-01-31T08:03:22.064Z,7.40
2019-01-31T08:05:50.276Z,8.10
2019-01-31T08:08:18.507Z,7.70
2019-01-31T08:10:46.834Z,8.57
2019-01-31T08:13:15.018Z,8.50
2019-01-31T08:15:43.236Z,7.93
2019-01-31T08:18:11.449Z,9.83
2019-01-31T08:20:39.666Z,9.23
2019-01-31T08:23:07.900Z,10.57
2019-01-31T08:25:36.130Z,11.93
2019-01-31T08:28:04.907Z,13.57
2019-01-31T08:30:41.786Z,12.90
2019-01-31T08:33:09.999Z,12.47
2019-01-31T08:35:38.246Z,13.63
2019-01-31T08:38:06.492Z,12.67
2019-01-31T08:40:34.718Z,13.17
2019-01-31T08:43:02.927Z,13.47
2019-01-31T08:45:31.148Z,13.07
2019-01-31T08:47:59.355Z,13.47
2019-01-31T08:50:29.125Z,13.50
2019-01-31T08:52:57.334Z,14.70
2019-01-31T08:55:25.558Z,13.07
2019-01-31T08:57:53.775Z,13.70
2019-01-31T09:00:24.616Z,11.43
2019-01-31T09:02:52.805Z,12.47
2019-01-31T09:05:21.017Z,10.90
2019-01-31T09:07:49.243Z,12.30
2019-01-31T09:10:28.565Z,10.40
2019-01-31T09:12:57.582Z,10.50
2019-01-31T09:15:26.344Z,9.77
2019-01-31T09:17:54.541Z,9.77
2019-01-31T09:20:25.893Z,10.03
2019-01-31T09:23:03.400Z,8.93
2019-01-31T09:25:49.937Z,10.27
2019-01-31T09:28:24.352Z,8.50
2019-01-31T09:30:58.518Z,8.50
2019-01-31T09:33:41.661Z,8.63
2019-01-31T09:36:18.826Z,8.83
2019-01-31T09:39:19.143Z,7.87
2019-01-31T09:41:53.313Z,7.50
2019-01-31T09:44:41.314Z,7.00
2019-01-31T09:47:33.748Z,7.20
2019-01-31T09:50:11.145Z,8.20
2019-01-31T09:52:51.207Z,6.17
2019-01-31T09:55:43.718Z,7.33
2019-01-31T09:58:23.953Z,6.33
2019-01-31T10:01:18.171Z,6.00
2019-01-31T10:03:49.628Z,6.53
2019-01-31T10:06:23.835Z,6.23
2019-01-31T10:09:01.247Z,6.77
2019-01-31T10:11:35.446Z,6.23
2019-01-31T10:14:34.371Z,5.93
2019-01-31T10:17:05.857Z,5.67
2019-01-31T10:19:43.328Z,5.70
2019-01-31T10:22:14.763Z,4.90
2019-01-31T10:24:58.197Z,5.37
2019-01-31T10:27:46.418Z,5.37
2019-01-31T10:30:26.530Z,4.60
2019-01-31T10:33:16.979Z,4.97
2019-01-31T10:36:12.668Z,4.77
2019-01-31T10:39:04.796Z,4.80
2019-01-31T10:41:41.971Z,4.77
2019-01-31T10:44:28.658Z,4.13
2019-01-31T10:47:12.197Z,4.33
2019-01-31T10:49:52.335Z,4.70
2019-01-31T10:52:23.827Z,4.60
2019-01-31T10:54:58.062Z,4.33
2019-01-31T10:58:03.075Z,4.00
2019-01-31T11:00:34.542Z,3.73
2019-01-31T11:03:28.804Z,3.87
2019-01-31T11:06:02.986Z,4.40
2019-01-31T11:08:40.201Z,3.73
2019-01-31T11:11:11.680Z,4.30
2019-01-31T11:13:48.915Z,4.80
2019-01-31T11:16:35.481Z,4.83
2019-01-31T11:19:12.571Z,4.17
2019-01-31T11:21:49.025Z,4.47
2019-01-31T11:24:20.515Z,4.50
2019-01-31T11:27:08.756Z,4.60
2019-01-31T11:29:58.530Z,4.90
2019-01-31T11:32:46.768Z,3.87
2019-01-31T11:35:43.981Z,4.80
2019-01-31T11:38:17.975Z,4.30
2019-01-31T11:40:58.162Z,5.10
2019-01-31T11:44:04.463Z,4.87
2019-01-31T11:46:50.707Z,4.83
2019-01-31T11:49:22.176Z,4.00
2019-01-31T11:51:53.726Z,4.27
2019-01-31T11:54:34.037Z,4.63
2019-01-31T11:57:08.342Z,4.10
2019-01-31T11:59:36.529Z,4.50
2019-01-31T12:02:05.096Z,4.20
2019-01-31T12:04:33.313Z,3.77
2019-01-31T12:07:01.620Z,3.90
2019-01-31T12:09:29.858Z,3.97
2019-01-31T12:11:58.050Z,4.10
2019-01-31T12:14:26.284Z,4.27
2019-01-31T12:16:54.476Z,3.67
2019-01-31T12:19:22.877Z,3.53
2019-01-31T12:21:51.230Z,3.83
2019-01-31T12:24:19.455Z,3.63
2019-01-31T12:26:47.659Z,3.77
2019-01-31T12:29:15.886Z,4.33
2019-01-31T12:31:44.086Z,3.40
2019-01-31T12:34:12.305Z,3.27
2019-01-31T12:36:40.534Z,4.00
2019-01-31T12:39:09.162Z,3.33
2019-01-31T12:41:37.376Z,2.93
2019-01-31T12:44:05.646Z,3.10
2019-01-31T12:46:33.861Z,3.30
2019-01-31T12:49:02.066Z,2.73
2019-01-31T12:51:30.387Z,3.70
2019-01-31T12:53:58.564Z,3.57
2019-01-31T12:56:26.799Z,3.63
2019-01-31T12:58:54.996Z,3.43
2019-01-31T13:01:23.198Z,3.00
2019-01-31T13:03:51.405Z,3.27
2019-01-31T13:06:19.630Z,3.03
2019-01-31T13:08:47.854Z,3.43
2019-01-31T13:11:16.065Z,3.20
2019-01-31T13:13:46.016Z,3.00
2019-01-31T13:16:14.216Z,2.97
2019-01-31T13:18:42.419Z,3.37
2019-01-31T13:21:10.640Z,3.00
2019-01-31T13:23:38.858Z,2.67
2019-01-31T13:26:07.076Z,2.90
2019-01-31T13:28:35.312Z,2.83
2019-01-31T13:31:03.507Z,3.10
2019-01-31T13:33:32.295Z,3.20
2019-01-31T13:36:00.486Z,3.07
2019-01-31T13:38:28.707Z,3.00
2019-01-31T13:40:56.914Z,3.50
2019-01-31T13:43:25.127Z,2.67
2019-01-31T13:45:53.331Z,3.13
2019-01-31T13:48:21.559Z,3.27
2019-01-31T13:50:49.765Z,2.70
2019-01-31T13:53:17.979Z,2.90
2019-01-31T13:55:46.203Z,3.63
2019-01-31T13:58:14.430Z,4.07
2019-01-31T14:00:42.634Z,4.83
2019-01-31T14:03:10.856Z,5.00
2019-01-31T14:05:39.052Z,4.93
2019-01-31T14:08:07.703Z,5.53
2019-01-31T14:10:37.375Z,6.07
2019-01-31T14:13:05.851Z,7.77
2019-01-31T14:15:34.916Z,8.27
2019-01-31T14:18:03.187Z,8.37
2019-01-31T14:20:31.416Z,8.63
2019-01-31T14:22:59.623Z,8.67
2019-01-31T14:25:27.835Z,8.70
2019-01-31T14:27:56.056Z,8.10
2019-01-31T14:30:27.241Z,7.73
2019-01-31T14:32:55.700Z,8.10
2019-01-31T14:35:23.930Z,8.80
2019-01-31T14:37:52.134Z,9.30
2019-01-31T14:40:20.343Z,8.60
2019-01-31T14:42:48.548Z,7.70
2019-01-31T14:45:17.614Z,8.80
2019-01-31T14:47:45.828Z,8.13
2019-01-31T14:50:19.763Z,7.63
2019-01-31T14:52:48.003Z,7.63
2019-01-31T14:55:16.215Z,7.87
2019-01-31T14:57:44.397Z,7.30
2019-01-31T15:00:27.949Z,6.70
2019-01-31T15:02:56.140Z,7.23
2019-01-31T15:05:24.370Z,6.73
2019-01-31T15:07:52.596Z,5.73
2019-01-31T15:10:28.873Z,6.17
2019-01-31T15:12:57.098Z,5.30
2019-01-31T15:15:25.323Z,5.90
2019-01-31T15:17:53.558Z,6.13
2019-01-31T15:20:37.646Z,6.13
2019-01-31T15:23:00.519Z,8.20
2019-01-31T15:25:28.737Z,9.33
2019-01-31T15:27:56.931Z,10.37
2019-01-31T15:30:27.942Z,10.63
2019-01-31T15:32:56.157Z,11.17
2019-01-31T15:35:24.387Z,10.07
2019-01-31T15:37:52.578Z,9.40
2019-01-31T15:40:26.587Z,8.83
2019-01-31T15:42:54.814Z,9.10
2019-01-31T15:45:23.050Z,9.07
2019-01-31T15:47:51.289Z,7.83
2019-01-31T15:50:21.125Z,7.60
2019-01-31T15:52:49.350Z,7.63
2019-01-31T15:55:22.973Z,7.43
2019-01-31T15:57:51.162Z,6.93
2019-01-31T16:00:38.690Z,7.10
2019-01-31T16:03:08.510Z,6.87
2019-01-31T16:05:36.739Z,6.27
2019-01-31T16:08:05.306Z,6.33
2019-01-31T16:10:33.696Z,5.73
2019-01-31T16:13:02.006Z,6.57
2019-01-31T16:15:30.264Z,5.40
2019-01-31T16:17:58.470Z,6.00
2019-01-31T16:20:26.681Z,5.23
2019-01-31T16:22:54.898Z,4.83
2019-01-31T16:25:23.221Z,5.03
2019-01-31T16:27:51.423Z,4.33
2019-01-31T16:30:20.762Z,4.40
2019-01-31T16:32:49.038Z,4.00
2019-01-31T16:35:18.796Z,3.73
2019-01-31T16:37:48.159Z,3.73
2019-01-31T16:40:17.608Z,3.80
2019-01-31T16:42:46.291Z,3.93
2019-01-31T16:45:16.686Z,3.53
2019-01-31T16:47:44.890Z,3.77
2019-01-31T16:50:16.027Z,3.50
2019-01-31T16:52:44.282Z,3.47
2019-01-31T16:55:17.680Z,3.40
2019-01-31T16:57:45.943Z,3.77
2019-01-31T17:00:17.084Z,3.10
2019-01-31T17:02:45.328Z,4.97
2019-01-31T17:05:16.364Z,5.00
2019-01-31T17:07:44.575Z,3.63
2019-01-31T17:10:12.950Z,4.50
2019-01-31T17:12:41.288Z,4.47
2019-01-31T17:15:18.271Z,4.77
2019-01-31T17:17:42.347Z,4.33
2019-01-31T17:20:13.971Z,3.70
2019-01-31T17:22:42.171Z,4.40
2019-01-31T17:25:12.355Z,3.80
2019-01-31T17:27:40.579Z,3.47
2019-01-31T17:30:14.845Z,3.97
2019-01-31T17:32:43.043Z,3.87
2019-01-31T17:35:11.243Z,3.60
2019-01-31T17:37:39.497Z,2.93
2019-01-31T17:40:10.973Z,3.20
2019-01-31T17:42:39.175Z,3.17
2019-01-31T17:45:10.918Z,3.43
2019-01-31T17:47:39.125Z,2.83
2019-01-31T17:50:10.317Z,2.90
2019-01-31T17:52:38.542Z,3.27
2019-01-31T17:55:09.680Z,3.33
2019-01-31T17:57:37.910Z,2.47
2019-01-31T18:00:11.999Z,2.93
2019-01-31T18:02:45.456Z,2.50
2019-01-31T18:05:12.412Z,2.47
2019-01-31T18:07:40.641Z,2.40
2019-01-31T18:10:14.996Z,3.27
2019-01-31T18:12:43.222Z,2.00
2019-01-31T18:15:12.079Z,2.27
2019-01-31T18:17:40.373Z,2.50
2019-01-31T18:20:11.863Z,1.70
2019-01-31T18:22:40.080Z,2.40
2019-01-31T18:25:09.230Z,1.70
2019-01-31T18:27:37.463Z,2.00
2019-01-31T18:30:17.624Z,2.43
2019-01-31T18:32:45.843Z,2.50
2019-01-31T18:35:14.026Z,1.73
2019-01-31T18:37:42.265Z,1.70
2019-01-31T18:40:13.883Z,2.07
2019-01-31T18:42:42.092Z,1.70
2019-01-31T18:45:13.679Z,1.57
2019-01-31T18:47:41.925Z,1.97
2019-01-31T18:50:13.262Z,1.90
2019-01-31T18:52:41.485Z,1.93
2019-01-31T18:55:10.063Z,1.73
2019-01-31T18:57:38.276Z,1.70
2019-01-31T19:00:22.664Z,2.07
2019-01-31T19:02:50.880Z,1.60
2019-01-31T19:05:19.103Z,2.03
2019-01-31T19:07:47.332Z,1.40
2019-01-31T19:10:16.073Z,1.50
2019-01-31T19:12:44.289Z,1.57
2019-01-31T19:15:17.608Z,1.57
2019-01-31T19:17:45.825Z,2.00
2019-01-31T19:20:17.435Z,1.70
2019-01-31T19:22:45.653Z,2.27
2019-01-31T19:25:14.705Z,3.30
2019-01-31T19:27:43.127Z,2.80
2019-01-31T19:30:17.287Z,2.10
2019-01-31T19:32:45.731Z,1.90
2019-01-31T19:35:14.136Z,2.30
2019-01-31T19:37:42.568Z,3.23
2019-01-31T19:40:16.777Z,2.73
2019-01-31T19:42:45.255Z,2.80
2019-01-31T19:45:19.946Z,2.57
2019-01-31T19:47:48.366Z,3.73
2019-01-31T19:50:17.211Z,3.63
2019-01-31T19:52:45.694Z,3.50
2019-01-31T19:55:14.209Z,5.00
2019-01-31T19:57:42.802Z,5.13
2019-01-31T20:00:16.048Z,4.17
2019-01-31T20:02:44.550Z,5.57
2019-01-31T20:05:13.713Z,5.17
2019-01-31T20:07:42.482Z,4.67
2019-01-31T20:10:14.138Z,4.97
2019-01-31T20:12:42.554Z,5.47
2019-01-31T20:15:12.503Z,5.93
2019-01-31T20:17:41.014Z,5.30
2019-01-31T20:20:16.983Z,6.17
2019-01-31T20:22:45.595Z,4.03
2019-01-31T20:25:14.531Z,4.30
2019-01-31T20:27:43.233Z,4.40
2019-01-31T20:30:28.796Z,4.00
2019-01-31T20:32:58.153Z,4.77
2019-01-31T20:35:26.726Z,4.93
2019-01-31T20:37:55.196Z,5.53
2019-01-31T20:40:35.283Z,5.83
2019-01-31T20:43:04.738Z,6.43
2019-01-31T20:45:33.153Z,7.47
2019-01-31T20:48:01.599Z,7.33
2019-01-31T20:50:32.467Z,9.13
2019-01-31T20:53:00.964Z,7.43
2019-01-31T20:55:29.546Z,7.53
2019-01-31T20:57:58.098Z,8.70
2019-01-31T21:00:33.795Z,7.70
2019-01-31T21:03:02.877Z,8.33
2019-01-31T21:05:31.407Z,7.60
2019-01-31T21:08:00.097Z,7.00
2019-01-31T21:10:28.527Z,7.63
2019-01-31T21:12:57.162Z,8.60
2019-01-31T21:15:26.289Z,8.17
2019-01-31T21:17:55.078Z,11.30
2019-01-31T21:20:26.498Z,10.87
2019-01-31T21:22:55.579Z,10.97
2019-01-31T21:25:24.225Z,12.07
2019-01-31T21:27:52.714Z,11.70
2019-01-31T21:30:30.270Z,10.93
2019-01-31T21:32:58.744Z,10.93
2019-01-31T21:35:27.898Z,10.83
2019-01-31T21:37:56.667Z,9.77
2019-01-31T21:40:27.415Z,8.90
2019-01-31T21:42:56.064Z,9.07
2019-01-31T21:45:25.358Z,10.17
2019-01-31T21:47:53.786Z,9.10
2019-01-31T21:50:29.864Z,9.90
2019-01-31T21:52:58.272Z,9.33
2019-01-31T21:55:27.119Z,9.90
2019-01-31T21:57:55.797Z,8.77
2019-01-31T22:00:30.034Z,9.17
2019-01-31T22:02:58.712Z,9.07
2019-01-31T22:05:27.266Z,10.27
2019-01-31T22:07:55.981Z,9.70
2019-01-31T22:10:24.720Z,9.70
2019-01-31T22:12:53.151Z,8.90
2019-01-31T22:15:26.764Z,7.93
2019-01-31T22:17:59.811Z,8.33
2019-01-31T22:20:25.649Z,8.60
2019-01-31T22:22:54.330Z,8.60
2019-01-31T22:25:24.633Z,8.63
2019-01-31T22:27:53.100Z,7.87
2019-01-31T22:30:30.432Z,7.77
2019-01-31T22:32:58.941Z,7.57
2019-01-31T22:35:27.429Z,7.37
2019-01-31T22:37:55.926Z,9.10
2019-01-31T22:40:24.344Z,8.80
2019-01-31T22:42:52.774Z,9.47
2019-01-31T22:45:24.891Z,11.77
2019-01-31T22:47:53.796Z,10.23
2019-01-31T22:50:23.755Z,10.90
2019-01-31T22:52:52.712Z,11.73
2019-01-31T22:55:26.425Z,10.97
2019-01-31T22:57:54.943Z,10.97
2019-01-31T23:00:52.298Z,10.80
2019-01-31T23:03:20.945Z,9.87
2019-01-31T23:05:49.375Z,9.97
2019-01-31T23:08:17.793Z,9.10
2019-01-31T23:10:46.236Z,9.93
2019-01-31T23:13:14.730Z,9.40
2019-01-31T23:15:43.136Z,8.90
2019-01-31T23:18:11.640Z,9.17
2019-01-31T23:20:40.076Z,8.80
2019-01-31T23:23:08.513Z,7.80
2019-01-31T23:25:40.256Z,7.77
2019-01-31T23:28:07.087Z,8.90
2019-01-31T23:30:35.682Z,7.73
2019-01-31T23:33:04.272Z,8.97
2019-01-31T23:35:32.682Z,7.37
2019-01-31T23:38:01.123Z,7.77
2019-01-31T23:40:29.614Z,8.57
2019-01-31T23:42:58.022Z,8.43
2019-01-31T23:45:26.442Z,8.73
2019-01-31T23:47:54.976Z,8.23
2019-01-31T23:50:23.415Z,7.50
2019-01-31T23:52:51.845Z,7.93
2019-01-31T23:55:20.556Z,8.37
2019-01-31T23:57:48.966Z,8.93
